sensor_id;sensor_type;location;lat;lon;timestamp;pressure;altitude;pressure_sealevel;temperature;humidity
46448;BME280;32145;50.390;30.778;2022-08-21T00:01:21;99730.63;;;18.73;76.24
46448;BME280;32145;50.390;30.778;2022-08-21T00:04:08;99733.41;;;18.67;76.15
46448;BME280;32145;50.390;30.778;2022-08-21T00:06:52;99730.72;;;18.62;76.20
46448;BME280;32145;50.390;30.778;2022-08-21T00:09:38;99730.72;;;18.62;76.26
46448;BME280;32145;50.390;30.778;2022-08-21T00:12:23;99741.19;;;18.60;76.38
46448;BME280;32145;50.390;30.778;2022-08-21T00:15:11;99739.84;;;18.58;76.47
46448;BME280;32145;50.390;30.778;2022-08-21T00:17:56;99742.06;;;18.55;76.50
46448;BME280;32145;50.390;30.778;2022-08-21T00:20:41;99738.50;;;18.55;76.56
46448;BME280;32145;50.390;30.778;2022-08-21T00:23:26;99744.28;;;18.53;76.56
46448;BME280;32145;50.390;30.778;2022-08-21T00:26:11;99747.84;;;18.54;76.64
46448;BME280;32145;50.390;30.778;2022-08-21T00:28:56;99752.78;;;18.52;76.66
46448;BME280;32145;50.390;30.778;2022-08-21T00:31:41;99742.41;;;18.49;76.69
46448;BME280;32145;50.390;30.778;2022-08-21T00:34:25;99736.69;;;18.45;76.66
46448;BME280;32145;50.390;30.778;2022-08-21T00:37:09;99743.56;;;18.42;76.86
46448;BME280;32145;50.390;30.778;2022-08-21T00:39:53;99741.41;;;18.39;76.90
46448;BME280;32145;50.390;30.778;2022-08-21T00:42:39;99740.06;;;18.37;77.05
46448;BME280;32145;50.390;30.778;2022-08-21T00:45:23;99743.66;;;18.32;76.90
46448;BME280;32145;50.390;30.778;2022-08-21T00:48:07;99740.41;;;18.30;76.98
46448;BME280;32145;50.390;30.778;2022-08-21T00:50:54;99737.09;;;18.28;77.29
46448;BME280;32145;50.390;30.778;2022-08-21T00:53:41;99733.84;;;18.26;77.01
46448;BME280;32145;50.390;30.778;2022-08-21T00:56:27;99732.22;;;18.25;77.11
46448;BME280;32145;50.390;30.778;2022-08-21T00:59:13;99739.34;;;18.26;77.30
46448;BME280;32145;50.390;30.778;2022-08-21T01:01:57;99736.59;;;18.26;77.13
46448;BME280;32145;50.390;30.778;2022-08-21T01:04:42;99740.13;;;18.26;77.11
46448;BME280;32145;50.390;30.778;2022-08-21T01:07:26;99738.50;;;18.25;77.05
46448;BME280;32145;50.390;30.778;2022-08-21T01:10:10;99735.25;;;18.23;77.06
46448;BME280;32145;50.390;30.778;2022-08-21T01:12:55;99747.03;;;18.24;77.06
46448;BME280;32145;50.390;30.778;2022-08-21T01:15:43;99738.00;;;18.23;77.05
46448;BME280;32145;50.390;30.778;2022-08-21T01:18:28;99749.25;;;18.22;77.13
46448;BME280;32145;50.390;30.778;2022-08-21T01:21:17;99743.22;;;18.20;77.04
46448;BME280;32145;50.390;30.778;2022-08-21T01:24:02;99748.47;;;18.16;77.15
46448;BME280;32145;50.390;30.778;2022-08-21T01:26:46;99750.38;;;18.15;77.16
46448;BME280;32145;50.390;30.778;2022-08-21T01:29:35;99753.41;;;18.14;77.19
46448;BME280;32145;50.390;30.778;2022-08-21T01:32:20;99741.66;;;18.13;77.15
46448;BME280;32145;50.390;30.778;2022-08-21T01:35:05;99740.00;;;18.12;77.10
46448;BME280;32145;50.390;30.778;2022-08-21T01:37:51;99741.38;;;18.10;77.31
46448;BME280;32145;50.390;30.778;2022-08-21T01:40:35;99744.69;;;18.12;77.16
46448;BME280;32145;50.390;30.778;2022-08-21T01:43:19;99729.28;;;18.16;77.22
46448;BME280;32145;50.390;30.778;2022-08-21T01:46:03;99731.16;;;18.21;77.01
46448;BME280;32145;50.390;30.778;2022-08-21T01:48:48;99729.75;;;18.23;76.92
46448;BME280;32145;50.390;30.778;2022-08-21T01:51:32;99724.00;;;18.25;77.02
46448;BME280;32145;50.390;30.778;2022-08-21T01:54:17;99730.53;;;18.29;76.83
46448;BME280;32145;50.390;30.778;2022-08-21T01:57:02;99721.47;;;18.28;77.00
46448;BME280;32145;50.390;30.778;2022-08-21T01:59:46;99726.97;;;18.28;76.84
46448;BME280;32145;50.390;30.778;2022-08-21T02:02:30;99728.59;;;18.29;76.84
46448;BME280;32145;50.390;30.778;2022-08-21T02:05:15;99730.22;;;18.31;76.88
46448;BME280;32145;50.390;30.778;2022-08-21T02:08:01;99732.69;;;18.32;76.65
46448;BME280;32145;50.390;30.778;2022-08-21T02:10:46;99730.53;;;18.29;76.61
46448;BME280;32145;50.390;30.778;2022-08-21T02:13:31;99733.03;;;18.25;76.55
46448;BME280;32145;50.390;30.778;2022-08-21T02:16:15;99729.75;;;18.23;76.61
46448;BME280;32145;50.390;30.778;2022-08-21T02:18:59;99728.41;;;18.21;76.62
46448;BME280;32145;50.390;30.778;2022-08-21T02:21:43;99727.88;;;18.19;76.61
46448;BME280;32145;50.390;30.778;2022-08-21T02:24:27;99726.25;;;18.18;76.65
46448;BME280;32145;50.390;30.778;2022-08-21T02:27:13;99727.34;;;18.16;76.77
46448;BME280;32145;50.390;30.778;2022-08-21T02:29:57;99725.69;;;18.15;76.63
46448;BME280;32145;50.390;30.778;2022-08-21T02:32:41;99734.22;;;18.14;76.67
46448;BME280;32145;50.390;30.778;2022-08-21T02:35:26;99735.34;;;18.13;76.72
46448;BME280;32145;50.390;30.778;2022-08-21T02:38:14;99740.31;;;18.11;76.60
46448;BME280;32145;50.390;30.778;2022-08-21T02:40:58;99742.22;;;18.10;76.70
46448;BME280;32145;50.390;30.778;2022-08-21T02:43:44;99740.59;;;18.09;76.68
46448;BME280;32145;50.390;30.778;2022-08-21T02:46:28;99740.00;;;18.07;76.58
46448;BME280;32145;50.390;30.778;2022-08-21T02:49:12;99739.50;;;18.05;76.61
46448;BME280;32145;50.390;30.778;2022-08-21T02:51:56;99733.47;;;18.03;76.58
46448;BME280;32145;50.390;30.778;2022-08-21T02:54:40;99731.28;;;18.00;76.56
46448;BME280;32145;50.390;30.778;2022-08-21T02:57:24;99733.81;;;17.96;76.70
46448;BME280;32145;50.390;30.778;2022-08-21T03:00:11;99746.69;;;17.96;76.88
46448;BME280;32145;50.390;30.778;2022-08-21T03:02:55;99743.94;;;17.96;76.91
46448;BME280;32145;50.390;30.778;2022-08-21T03:05:40;99748.63;;;17.95;76.84
46448;BME280;32145;50.390;30.778;2022-08-21T03:08:25;99738.75;;;17.94;76.73
46448;BME280;32145;50.390;30.778;2022-08-21T03:11:09;99745.63;;;17.91;76.75
46448;BME280;32145;50.390;30.778;2022-08-21T03:13:53;99743.44;;;17.88;76.42
46448;BME280;32145;50.390;30.778;2022-08-21T03:16:38;99748.41;;;17.86;76.77
46448;BME280;32145;50.390;30.778;2022-08-21T03:19:22;99747.28;;;17.87;76.78
46448;BME280;32145;50.390;30.778;2022-08-21T03:22:06;99744.56;;;17.87;76.81
46448;BME280;32145;50.390;30.778;2022-08-21T03:24:50;99740.19;;;17.86;76.75
46448;BME280;32145;50.390;30.778;2022-08-21T03:27:34;99746.50;;;17.87;76.63
46448;BME280;32145;50.390;30.778;2022-08-21T03:30:20;99751.66;;;17.88;76.59
46448;BME280;32145;50.390;30.778;2022-08-21T03:33:06;99748.91;;;17.94;76.56
46448;BME280;32145;50.390;30.778;2022-08-21T03:35:58;99745.53;;;18.02;76.46
46448;BME280;32145;50.390;30.778;2022-08-21T03:38:43;99752.34;;;18.10;76.37
46448;BME280;32145;50.390;30.778;2022-08-21T03:41:27;99766.22;;;18.24;76.18
46448;BME280;32145;50.390;30.778;2022-08-21T03:44:11;99763.63;;;18.38;75.78
46448;BME280;32145;50.390;30.778;2022-08-21T03:46:55;99767.06;;;18.54;75.57
46448;BME280;32145;50.390;30.778;2022-08-21T03:49:40;99776.78;;;18.71;74.95
46448;BME280;32145;50.390;30.778;2022-08-21T03:52:25;99782.69;;;18.83;74.58
46448;BME280;32145;50.390;30.778;2022-08-21T03:55:09;99783.84;;;19.01;74.14
46448;BME280;32145;50.390;30.778;2022-08-21T03:57:53;99770.13;;;19.26;73.73
46448;BME280;32145;50.390;30.778;2022-08-21T04:00:37;99775.59;;;19.50;73.03
46448;BME280;32145;50.390;30.778;2022-08-21T04:03:21;99782.19;;;19.68;72.57
46448;BME280;32145;50.390;30.778;2022-08-21T04:06:07;99791.03;;;19.84;71.70
46448;BME280;32145;50.390;30.778;2022-08-21T04:08:52;99783.50;;;19.90;71.04
46448;BME280;32145;50.390;30.778;2022-08-21T04:11:37;99783.91;;;19.83;70.40
46448;BME280;32145;50.390;30.778;2022-08-21T04:14:21;99770.44;;;19.63;70.30
46448;BME280;32145;50.390;30.778;2022-08-21T04:17:05;99768.22;;;19.45;70.56
46448;BME280;32145;50.390;30.778;2022-08-21T04:19:49;99773.84;;;19.35;70.87
46448;BME280;32145;50.390;30.778;2022-08-21T04:22:34;99775.84;;;19.29;70.87
46448;BME280;32145;50.390;30.778;2022-08-21T04:25:20;99780.25;;;19.30;70.57
46448;BME280;32145;50.390;30.778;2022-08-21T04:28:05;99778.00;;;19.32;70.69
46448;BME280;32145;50.390;30.778;2022-08-21T04:30:49;99779.28;;;19.40;70.57
46448;BME280;32145;50.390;30.778;2022-08-21T04:33:34;99788.78;;;19.48;70.16
46448;BME280;32145;50.390;30.778;2022-08-21T04:36:18;99785.16;;;19.53;69.92
46448;BME280;32145;50.390;30.778;2022-08-21T04:39:04;99794.91;;;19.64;69.77
46448;BME280;32145;50.390;30.778;2022-08-21T04:41:48;99787.31;;;19.75;69.60
46448;BME280;32145;50.390;30.778;2022-08-21T04:44:32;99785.00;;;19.82;69.41
46448;BME280;32145;50.390;30.778;2022-08-21T04:47:17;99788.81;;;19.87;68.96
46448;BME280;32145;50.390;30.778;2022-08-21T04:50:02;99780.84;;;19.85;68.65
46448;BME280;32145;50.390;30.778;2022-08-21T04:52:46;99782.72;;;19.90;68.44
46448;BME280;32145;50.390;30.778;2022-08-21T04:55:32;99779.03;;;19.94;67.93
46448;BME280;32145;50.390;30.778;2022-08-21T04:58:19;99783.97;;;19.98;67.85
46448;BME280;32145;50.390;30.778;2022-08-21T05:01:05;99777.81;;;20.06;67.58
46448;BME280;32145;50.390;30.778;2022-08-21T05:03:52;99789.53;;;20.12;67.39
46448;BME280;32145;50.390;30.778;2022-08-21T05:06:38;99782.91;;;20.13;66.87
46448;BME280;32145;50.390;30.778;2022-08-21T05:09:25;99778.97;;;20.19;66.61
46448;BME280;32145;50.390;30.778;2022-08-21T05:12:12;99783.06;;;20.21;66.40
46448;BME280;32145;50.390;30.778;2022-08-21T05:14:56;99774.69;;;20.27;66.37
46448;BME280;32145;50.390;30.778;2022-08-21T05:17:41;99789.91;;;20.38;65.82
46448;BME280;32145;50.390;30.778;2022-08-21T05:20:25;99790.66;;;20.44;65.68
46448;BME280;32145;50.390;30.778;2022-08-21T05:23:11;99797.41;;;20.52;65.21
46448;BME280;32145;50.390;30.778;2022-08-21T05:25:56;99791.50;;;20.58;65.07
46448;BME280;32145;50.390;30.778;2022-08-21T05:28:41;99787.75;;;20.68;64.70
46448;BME280;32145;50.390;30.778;2022-08-21T05:31:25;99786.03;;;20.72;64.48
46448;BME280;32145;50.390;30.778;2022-08-21T05:34:09;99783.16;;;20.78;64.15
46448;BME280;32145;50.390;30.778;2022-08-21T05:36:53;99778.66;;;20.82;64.11
46448;BME280;32145;50.390;30.778;2022-08-21T05:39:37;99777.25;;;20.84;64.16
46448;BME280;32145;50.390;30.778;2022-08-21T05:42:22;99773.38;;;20.85;63.91
46448;BME280;32145;50.390;30.778;2022-08-21T05:45:08;99776.06;;;20.91;63.45
46448;BME280;32145;50.390;30.778;2022-08-21T05:47:52;99774.03;;;20.96;63.52
46448;BME280;32145;50.390;30.778;2022-08-21T05:50:36;99772.16;;;21.06;63.39
46448;BME280;32145;50.390;30.778;2022-08-21T05:53:21;99775.84;;;21.15;63.03
46448;BME280;32145;50.390;30.778;2022-08-21T05:56:05;99781.75;;;21.22;62.77
46448;BME280;32145;50.390;30.778;2022-08-21T05:58:49;99779.91;;;21.32;62.47
46448;BME280;32145;50.390;30.778;2022-08-21T06:01:35;99780.50;;;21.43;62.24
46448;BME280;32145;50.390;30.778;2022-08-21T06:04:19;99786.00;;;21.57;62.13
46448;BME280;32145;50.390;30.778;2022-08-21T06:07:03;99790.16;;;21.68;61.74
46448;BME280;32145;50.390;30.778;2022-08-21T06:09:48;99779.03;;;21.73;61.12
46448;BME280;32145;50.390;30.778;2022-08-21T06:12:32;99784.09;;;21.80;61.26
46448;BME280;32145;50.390;30.778;2022-08-21T06:15:16;99783.03;;;21.90;60.84
46448;BME280;32145;50.390;30.778;2022-08-21T06:18:02;99781.28;;;21.94;60.45
46448;BME280;32145;50.390;30.778;2022-08-21T06:20:46;99779.44;;;22.04;60.47
46448;BME280;32145;50.390;30.778;2022-08-21T06:23:30;99775.41;;;22.10;60.26
46448;BME280;32145;50.390;30.778;2022-08-21T06:26:14;99767.00;;;22.15;59.88
46448;BME280;32145;50.390;30.778;2022-08-21T06:28:59;99768.19;;;22.23;59.52
46448;BME280;32145;50.390;30.778;2022-08-21T06:31:44;99770.31;;;22.26;59.12
46448;BME280;32145;50.390;30.778;2022-08-21T06:34:29;99767.72;;;22.30;58.72
46448;BME280;32145;50.390;30.778;2022-08-21T06:37:14;99773.13;;;22.35;58.74
46448;BME280;32145;50.390;30.778;2022-08-21T06:40:01;99763.56;;;22.41;58.64
46448;BME280;32145;50.390;30.778;2022-08-21T06:42:46;99757.16;;;22.55;58.85
46448;BME280;32145;50.390;30.778;2022-08-21T06:45:30;99758.53;;;22.66;58.71
46448;BME280;32145;50.390;30.778;2022-08-21T06:48:14;99765.53;;;22.72;57.89
46448;BME280;32145;50.390;30.778;2022-08-21T06:50:59;99762.78;;;22.72;57.73
46448;BME280;32145;50.390;30.778;2022-08-21T06:53:44;99764.13;;;22.84;57.48
46448;BME280;32145;50.390;30.778;2022-08-21T06:56:28;99768.38;;;22.90;57.55
46448;BME280;32145;50.390;30.778;2022-08-21T06:59:12;99763.84;;;22.94;57.44
46448;BME280;32145;50.390;30.778;2022-08-21T07:01:57;99760.28;;;23.02;57.20
46448;BME280;32145;50.390;30.778;2022-08-21T07:04:41;99755.28;;;23.13;56.66
46448;BME280;32145;50.390;30.778;2022-08-21T07:07:27;99754.97;;;23.24;56.72
46448;BME280;32145;50.390;30.778;2022-08-21T07:10:10;99742.16;;;23.37;56.31
46448;BME280;32145;50.390;30.778;2022-08-21T07:12:54;99750.78;;;23.44;55.87
46448;BME280;32145;50.390;30.778;2022-08-21T07:15:38;99739.56;;;23.49;55.97
46448;BME280;32145;50.390;30.778;2022-08-21T07:18:22;99749.34;;;23.55;55.51
46448;BME280;32145;50.390;30.778;2022-08-21T07:21:07;99747.72;;;23.54;55.17
46448;BME280;32145;50.390;30.778;2022-08-21T07:23:53;99748.84;;;23.62;55.54
46448;BME280;32145;50.390;30.778;2022-08-21T07:26:37;99745.25;;;23.71;54.97
46448;BME280;32145;50.390;30.778;2022-08-21T07:29:21;99742.50;;;23.79;55.38
46448;BME280;32145;50.390;30.778;2022-08-21T07:32:05;99744.13;;;23.89;55.37
46448;BME280;32145;50.390;30.778;2022-08-21T07:34:49;99747.03;;;23.93;54.61
46448;BME280;32145;50.390;30.778;2022-08-21T07:37:33;99744.44;;;23.97;54.58
46448;BME280;32145;50.390;30.778;2022-08-21T07:40:19;99744.13;;;23.98;54.12
46448;BME280;32145;50.390;30.778;2022-08-21T07:43:03;99745.88;;;24.03;54.24
46448;BME280;32145;50.390;30.778;2022-08-21T07:45:48;99744.75;;;24.13;54.03
46448;BME280;32145;50.390;30.778;2022-08-21T07:48:32;99746.72;;;24.21;54.43
46448;BME280;32145;50.390;30.778;2022-08-21T07:51:17;99745.72;;;24.26;54.13
46448;BME280;32145;50.390;30.778;2022-08-21T07:54:01;99750.72;;;24.41;54.25
46448;BME280;32145;50.390;30.778;2022-08-21T07:56:47;99756.44;;;24.45;53.91
46448;BME280;32145;50.390;30.778;2022-08-21T07:59:31;99750.19;;;24.48;53.53
46448;BME280;32145;50.390;30.778;2022-08-21T08:02:22;99746.78;;;24.51;53.57
46448;BME280;32145;50.390;30.778;2022-08-21T08:05:09;99746.44;;;24.62;53.10
46448;BME280;32145;50.390;30.778;2022-08-21T08:07:54;99744.91;;;24.73;53.35
46448;BME280;32145;50.390;30.778;2022-08-21T08:10:38;99735.44;;;24.74;52.76
46448;BME280;32145;50.390;30.778;2022-08-21T08:13:24;99743.38;;;24.84;52.73
46448;BME280;32145;50.390;30.778;2022-08-21T08:16:08;99742.06;;;24.91;52.48
46448;BME280;32145;50.390;30.778;2022-08-21T08:18:52;99736.66;;;24.94;52.11
46448;BME280;32145;50.390;30.778;2022-08-21T08:21:36;99734.34;;;25.05;52.50
46448;BME280;32145;50.390;30.778;2022-08-21T08:24:20;99736.25;;;25.14;51.94
46448;BME280;32145;50.390;30.778;2022-08-21T08:27:04;99739.28;;;25.21;52.34
46448;BME280;32145;50.390;30.778;2022-08-21T08:29:50;99738.97;;;25.22;51.42
46448;BME280;32145;50.390;30.778;2022-08-21T08:32:35;99732.31;;;25.15;51.22
46448;BME280;32145;50.390;30.778;2022-08-21T08:35:20;99734.09;;;25.19;51.12
46448;BME280;32145;50.390;30.778;2022-08-21T08:38:04;99731.94;;;25.25;51.03
46448;BME280;32145;50.390;30.778;2022-08-21T08:40:53;99739.91;;;25.27;50.16
46448;BME280;32145;50.390;30.778;2022-08-21T08:43:41;99731.50;;;25.35;50.47
46448;BME280;32145;50.390;30.778;2022-08-21T08:46:34;99724.06;;;25.48;50.40
46448;BME280;32145;50.390;30.778;2022-08-21T08:49:22;99730.16;;;25.42;49.84
46448;BME280;32145;50.390;30.778;2022-08-21T08:52:14;99732.47;;;25.40;49.56
46448;BME280;32145;50.390;30.778;2022-08-21T08:55:05;99728.78;;;25.48;49.56
46448;BME280;32145;50.390;30.778;2022-08-21T08:57:51;99729.25;;;25.59;49.58
46448;BME280;32145;50.390;30.778;2022-08-21T09:00:38;99728.91;;;25.60;48.98
46448;BME280;32145;50.390;30.778;2022-08-21T09:03:24;99738.38;;;25.59;48.84
46448;BME280;32145;50.390;30.778;2022-08-21T09:06:16;99728.97;;;25.73;48.50
46448;BME280;32145;50.390;30.778;2022-08-21T09:09:12;99726.91;;;25.82;48.52
46448;BME280;32145;50.390;30.778;2022-08-21T09:12:06;99726.50;;;25.93;48.50
46448;BME280;32145;50.390;30.778;2022-08-21T09:14:59;99733.66;;;25.94;47.52
46448;BME280;32145;50.390;30.778;2022-08-21T09:21:06;99725.94;;;25.99;47.62
46448;BME280;32145;50.390;30.778;2022-08-21T09:23:58;99717.28;;;26.13;46.71
46448;BME280;32145;50.390;30.778;2022-08-21T09:26:47;99721.25;;;26.12;45.72
46448;BME280;32145;50.390;30.778;2022-08-21T09:29:37;99725.63;;;26.13;45.97
46448;BME280;32145;50.390;30.778;2022-08-21T09:32:25;99727.81;;;26.08;45.73
46448;BME280;32145;50.390;30.778;2022-08-21T09:35:13;99731.19;;;26.13;46.23
46448;BME280;32145;50.390;30.778;2022-08-21T09:38:00;99724.19;;;26.29;45.71
46448;BME280;32145;50.390;30.778;2022-08-21T09:40:46;99722.25;;;26.42;45.17
46448;BME280;32145;50.390;30.778;2022-08-21T09:43:31;99719.22;;;26.59;45.11
46448;BME280;32145;50.390;30.778;2022-08-21T09:46:21;99726.88;;;26.75;44.44
46448;BME280;32145;50.390;30.778;2022-08-21T09:49:06;99719.94;;;26.81;44.62
46448;BME280;32145;50.390;30.778;2022-08-21T09:51:52;99721.34;;;26.87;44.49
46448;BME280;32145;50.390;30.778;2022-08-21T09:54:39;99713.69;;;26.84;43.83
46448;BME280;32145;50.390;30.778;2022-08-21T09:57:26;99708.47;;;26.83;43.53
46448;BME280;32145;50.390;30.778;2022-08-21T10:00:18;99702.66;;;26.88;43.83
46448;BME280;32145;50.390;30.778;2022-08-21T10:03:12;99701.63;;;26.93;44.21
46448;BME280;32145;50.390;30.778;2022-08-21T10:05:58;99719.72;;;26.99;43.96
46448;BME280;32145;50.390;30.778;2022-08-21T10:08:43;99718.09;;;27.10;44.24
46448;BME280;32145;50.390;30.778;2022-08-21T10:11:28;99716.44;;;27.22;43.40
46448;BME280;32145;50.390;30.778;2022-08-21T10:14:17;99711.69;;;27.22;42.88
46448;BME280;32145;50.390;30.778;2022-08-21T10:17:07;99714.13;;;27.24;43.01
46448;BME280;32145;50.390;30.778;2022-08-21T10:20:02;99714.00;;;27.20;42.97
46448;BME280;32145;50.390;30.778;2022-08-21T10:22:54;99703.00;;;27.24;43.37
46448;BME280;32145;50.390;30.778;2022-08-21T10:25:50;99705.78;;;27.24;42.46
46448;BME280;32145;50.390;30.778;2022-08-21T10:28:40;99699.97;;;27.29;42.85
46448;BME280;32145;50.390;30.778;2022-08-21T10:31:46;99706.69;;;27.28;41.94
46448;BME280;32145;50.390;30.778;2022-08-21T10:34:41;99692.56;;;27.21;41.75
46448;BME280;32145;50.390;30.778;2022-08-21T10:37:42;99690.44;;;27.30;42.13
46448;BME280;32145;50.390;30.778;2022-08-21T10:40:34;99693.31;;;27.46;42.06
46448;BME280;32145;50.390;30.778;2022-08-21T10:43:28;99687.34;;;27.60;41.94
46448;BME280;32145;50.390;30.778;2022-08-21T10:49:25;99684.72;;;27.80;41.77
46448;BME280;32145;50.390;30.778;2022-08-21T10:52:35;99683.91;;;27.79;41.48
46448;BME280;32145;50.390;30.778;2022-08-21T10:55:26;99690.91;;;27.73;41.30
46448;BME280;32145;50.390;30.778;2022-08-21T10:58:22;99678.25;;;27.76;40.82
46448;BME280;32145;50.390;30.778;2022-08-21T11:01:13;99679.09;;;27.92;40.72
46448;BME280;32145;50.390;30.778;2022-08-21T11:04:09;99674.63;;;28.04;40.51
46448;BME280;32145;50.390;30.778;2022-08-21T11:07:08;99673.00;;;28.03;40.67
46448;BME280;32145;50.390;30.778;2022-08-21T11:09:56;99677.72;;;27.86;40.62
46448;BME280;32145;50.390;30.778;2022-08-21T11:12:44;99671.91;;;27.91;40.90
46448;BME280;32145;50.390;30.778;2022-08-21T11:15:35;99670.22;;;28.03;40.84
46448;BME280;32145;50.390;30.778;2022-08-21T11:18:24;99672.03;;;28.11;40.28
46448;BME280;32145;50.390;30.778;2022-08-21T11:21:27;99669.03;;;28.20;41.00
46448;BME280;32145;50.390;30.778;2022-08-21T11:24:21;99662.88;;;28.27;39.96
46448;BME280;32145;50.390;30.778;2022-08-21T11:27:18;99669.63;;;28.42;40.00
46448;BME280;32145;50.390;30.778;2022-08-21T11:30:06;99660.97;;;28.47;40.77
46448;BME280;32145;50.390;30.778;2022-08-21T11:33:13;99667.19;;;28.56;40.06
46448;BME280;32145;50.390;30.778;2022-08-21T11:36:12;99664.09;;;28.62;39.70
46448;BME280;32145;50.390;30.778;2022-08-21T11:39:06;99666.44;;;28.60;39.95
46448;BME280;32145;50.390;30.778;2022-08-21T11:42:02;99667.19;;;28.56;39.76
46448;BME280;32145;50.390;30.778;2022-08-21T11:45:08;99663.13;;;28.54;39.62
46448;BME280;32145;50.390;30.778;2022-08-21T11:48:00;99658.53;;;28.46;39.88
46448;BME280;32145;50.390;30.778;2022-08-21T11:50:49;99663.22;;;28.41;40.32
46448;BME280;32145;50.390;30.778;2022-08-21T11:53:38;99654.78;;;28.38;39.43
46448;BME280;32145;50.390;30.778;2022-08-21T11:56:28;99660.78;;;28.40;40.20
46448;BME280;32145;50.390;30.778;2022-08-21T11:59:19;99652.53;;;28.43;40.09
46448;BME280;32145;50.390;30.778;2022-08-21T12:02:10;99655.84;;;28.49;40.55
46448;BME280;32145;50.390;30.778;2022-08-21T12:04:59;99659.84;;;28.68;40.79
46448;BME280;32145;50.390;30.778;2022-08-21T12:07:44;99653.66;;;28.75;40.43
46448;BME280;32145;50.390;30.778;2022-08-21T12:10:33;99665.41;;;28.84;39.81
46448;BME280;32145;50.390;30.778;2022-08-21T12:13:27;99659.84;;;28.84;39.79
46448;BME280;32145;50.390;30.778;2022-08-21T12:16:14;99663.81;;;28.83;40.14
46448;BME280;32145;50.390;30.778;2022-08-21T12:19:04;99653.28;;;28.92;39.61
46448;BME280;32145;50.390;30.778;2022-08-21T12:21:51;99652.72;;;29.03;39.42
46448;BME280;32145;50.390;30.778;2022-08-21T12:24:37;99656.09;;;29.12;39.75
46448;BME280;32145;50.390;30.778;2022-08-21T12:27:27;99641.25;;;29.28;39.67
46448;BME280;32145;50.390;30.778;2022-08-21T12:30:23;99653.44;;;29.39;39.41
46448;BME280;32145;50.390;30.778;2022-08-21T12:33:21;99651.03;;;29.38;39.24
46448;BME280;32145;50.390;30.778;2022-08-21T12:36:12;99655.28;;;29.12;39.32
46448;BME280;32145;50.390;30.778;2022-08-21T12:39:01;99644.25;;;28.99;39.64
46448;BME280;32145;50.390;30.778;2022-08-21T12:41:48;99644.03;;;29.08;39.84
46448;BME280;32145;50.390;30.778;2022-08-21T12:44:38;99650.16;;;29.14;40.03
46448;BME280;32145;50.390;30.778;2022-08-21T12:47:29;99646.69;;;29.20;39.62
46448;BME280;32145;50.390;30.778;2022-08-21T12:50:20;99648.81;;;29.27;39.72
46448;BME280;32145;50.390;30.778;2022-08-21T12:53:08;99645.22;;;29.27;39.51
46448;BME280;32145;50.390;30.778;2022-08-21T12:55:54;99644.25;;;29.19;39.68
46448;BME280;32145;50.390;30.778;2022-08-21T12:58:40;99641.47;;;29.19;39.68
46448;BME280;32145;50.390;30.778;2022-08-21T13:01:27;99644.34;;;29.23;39.25
46448;BME280;32145;50.390;30.778;2022-08-21T13:04:18;99643.75;;;29.13;39.75
46448;BME280;32145;50.390;30.778;2022-08-21T13:07:06;99632.94;;;28.92;39.49
46448;BME280;32145;50.390;30.778;2022-08-21T13:09:53;99631.47;;;28.82;40.07
46448;BME280;32145;50.390;30.778;2022-08-21T13:12:38;99633.13;;;28.83;39.94
46448;BME280;32145;50.390;30.778;2022-08-21T13:15:28;99642.56;;;28.94;39.91
46448;BME280;32145;50.390;30.778;2022-08-21T13:18:20;99639.34;;;29.12;39.86
46448;BME280;32145;50.390;30.778;2022-08-21T13:21:11;99647.16;;;29.23;39.89
46448;BME280;32145;50.390;30.778;2022-08-21T13:24:08;99651.38;;;29.16;39.57
46448;BME280;32145;50.390;30.778;2022-08-21T13:26:54;99649.31;;;29.13;39.68
46448;BME280;32145;50.390;30.778;2022-08-21T13:29:39;99644.75;;;29.05;39.88
46448;BME280;32145;50.390;30.778;2022-08-21T13:32:25;99647.13;;;29.03;40.48
46448;BME280;32145;50.390;30.778;2022-08-21T13:35:13;99651.78;;;28.63;40.88
46448;BME280;32145;50.390;30.778;2022-08-21T13:37:59;99643.38;;;28.27;41.85
46448;BME280;32145;50.390;30.778;2022-08-21T13:40:46;99644.50;;;28.26;41.63
46448;BME280;32145;50.390;30.778;2022-08-21T13:43:34;99648.03;;;28.55;41.23
46448;BME280;32145;50.390;30.778;2022-08-21T13:46:21;99657.28;;;28.43;40.66
46448;BME280;32145;50.390;30.778;2022-08-21T13:49:08;99654.31;;;28.20;41.69
46448;BME280;32145;50.390;30.778;2022-08-21T13:51:53;99652.06;;;28.09;42.24
46448;BME280;32145;50.390;30.778;2022-08-21T13:54:40;99645.25;;;28.23;42.18
46448;BME280;32145;50.390;30.778;2022-08-21T13:57:27;99649.56;;;28.36;42.13
46448;BME280;32145;50.390;30.778;2022-08-21T14:00:16;99657.81;;;28.49;41.66
46448;BME280;32145;50.390;30.778;2022-08-21T14:03:02;99653.75;;;28.62;41.39
46448;BME280;32145;50.390;30.778;2022-08-21T14:05:46;99646.50;;;28.41;41.70
46448;BME280;32145;50.390;30.778;2022-08-21T14:08:34;99646.25;;;28.30;41.69
46448;BME280;32145;50.390;30.778;2022-08-21T14:11:20;99656.38;;;28.23;41.48
46448;BME280;32145;50.390;30.778;2022-08-21T14:14:15;99658.00;;;28.40;41.41
46448;BME280;32145;50.390;30.778;2022-08-21T14:17:06;99650.72;;;28.51;41.55
46448;BME280;32145;50.390;30.778;2022-08-21T14:19:51;99647.13;;;28.51;41.57
46448;BME280;32145;50.390;30.778;2022-08-21T14:22:38;99652.25;;;28.49;41.04
46448;BME280;32145;50.390;30.778;2022-08-21T14:25:37;99656.94;;;28.45;41.02
46448;BME280;32145;50.390;30.778;2022-08-21T14:28:25;99659.28;;;28.42;41.31
46448;BME280;32145;50.390;30.778;2022-08-21T14:31:13;99660.72;;;28.36;41.90
46448;BME280;32145;50.390;30.778;2022-08-21T14:33:59;99658.00;;;28.24;41.92
46448;BME280;32145;50.390;30.778;2022-08-21T14:36:43;99660.88;;;28.11;42.21
46448;BME280;32145;50.390;30.778;2022-08-21T14:39:27;99657.28;;;28.11;41.99